BNE weather

Brisbane International Airport
Brisbane, Queensland, Australia

Public forecast

Using degrees Celsius for public forecast. Weather courtesy of forecast.io.

METAR (pilot weather report)

Retrieved 2018/08/15 05:30 UTC (22 minutes ago):

YBBN 150530Z 01017KT CAVOK 21/13 Q1015 NOSIG

TAF (pilot weather forecast)

Forecast is more than 12 hours old.

Retrieved 2018/08/14 00:00 UTC (1 day ago):

TAF YBBN 142318Z 1500/1606 33008KT CAVOK FM150200 02014KT CAVOK FM151000 33007KT CAVOK FM160200 02012KT CAVOK